createdAt,value
2018-07-23T00:00:41.332Z,6.55
2018-07-23T00:04:05.831Z,8.30
2018-07-23T00:07:30.307Z,6.60
2018-07-23T00:10:54.751Z,7.58
2018-07-23T00:14:19.217Z,7.75
2018-07-23T00:17:43.661Z,8.05
2018-07-23T00:21:08.154Z,7.60
2018-07-23T00:24:32.621Z,8.13
2018-07-23T00:27:57.114Z,9.20
2018-07-23T00:31:21.557Z,8.33
2018-07-23T00:34:46.035Z,11.35
2018-07-23T00:38:10.497Z,9.38
2018-07-23T00:41:34.948Z,9.40
2018-07-23T00:44:59.427Z,10.50
2018-07-23T00:48:23.885Z,10.60
2018-07-23T00:51:48.353Z,10.38
2018-07-23T00:55:12.802Z,9.98
2018-07-23T00:58:37.339Z,11.60
2018-07-23T01:02:01.772Z,10.25
2018-07-23T01:05:26.220Z,9.78
2018-07-23T01:08:50.691Z,10.40
2018-07-23T01:12:33.320Z,11.53
2018-07-23T01:15:57.788Z,11.75
2018-07-23T01:19:22.309Z,11.75
2018-07-23T01:22:46.780Z,12.90
2018-07-23T01:26:11.219Z,12.45
2018-07-23T01:29:35.688Z,11.90
2018-07-23T01:33:00.163Z,12.55
2018-07-23T01:36:24.616Z,11.45
2018-07-23T01:39:49.078Z,13.93
2018-07-23T01:43:13.529Z,12.20
2018-07-23T01:46:37.992Z,13.68
2018-07-23T01:50:02.432Z,13.25
2018-07-23T01:53:26.890Z,15.05
2018-07-23T01:56:51.397Z,13.43
2018-07-23T02:00:15.864Z,12.82
2018-07-23T02:03:41.464Z,13.25
2018-07-23T02:07:06.882Z,13.45
2018-07-23T02:10:31.400Z,11.65
2018-07-23T02:13:55.871Z,11.97
2018-07-23T02:17:20.305Z,12.63
2018-07-23T02:20:44.814Z,14.03
2018-07-23T02:24:09.323Z,13.20
2018-07-23T02:27:33.956Z,13.93
2018-07-23T02:30:58.422Z,14.73
2018-07-23T02:34:22.867Z,14.83
2018-07-23T02:37:47.339Z,14.78
2018-07-23T02:41:11.875Z,16.25
2018-07-23T02:44:36.359Z,17.25
2018-07-23T02:48:00.838Z,17.77
2018-07-23T02:51:25.300Z,17.55
2018-07-23T02:54:49.752Z,19.17
2018-07-23T02:58:14.232Z,19.27
2018-07-23T03:01:38.743Z,18.52
2018-07-23T03:05:03.227Z,20.08
2018-07-23T03:08:27.688Z,20.10
2018-07-23T03:11:52.129Z,18.20
2018-07-23T03:15:16.620Z,20.02
2018-07-23T03:18:41.123Z,18.17
2018-07-23T03:22:05.581Z,19.73
2018-07-23T03:25:30.045Z,18.92
2018-07-23T03:28:54.474Z,18.05
2018-07-23T03:32:18.910Z,19.98
2018-07-23T03:35:43.366Z,19.70
2018-07-23T03:39:10.016Z,23.55
2018-07-23T03:42:34.478Z,18.85
2018-07-23T03:45:58.972Z,19.92
2018-07-23T03:49:23.434Z,17.42
2018-07-23T03:52:47.954Z,23.67
2018-07-23T03:56:12.447Z,20.45
2018-07-23T03:59:36.942Z,21.52
2018-07-23T04:03:01.404Z,20.97
2018-07-23T04:06:25.862Z,19.48
2018-07-23T04:09:50.317Z,19.57
2018-07-23T04:13:14.772Z,23.55
2018-07-23T04:16:39.228Z,20.95
2018-07-23T04:20:03.836Z,18.67
2018-07-23T04:23:28.287Z,19.92
2018-07-23T04:26:52.856Z,18.70
2018-07-23T04:30:17.328Z,19.48
2018-07-23T04:33:41.789Z,18.92
2018-07-23T04:37:06.285Z,20.25
2018-07-23T04:40:30.788Z,19.12
2018-07-23T04:43:55.267Z,17.98
2018-07-23T04:47:19.705Z,21.48
2018-07-23T04:50:44.203Z,22.98
2018-07-23T04:54:08.707Z,25.12
2018-07-23T04:57:33.296Z,23.18
2018-07-23T05:00:57.943Z,27.85
2018-07-23T05:04:22.406Z,21.75
2018-07-23T05:07:46.924Z,25.08
2018-07-23T05:11:11.363Z,21.80
2018-07-23T05:14:35.859Z,24.85
2018-07-23T05:18:00.334Z,24.52
2018-07-23T05:21:24.847Z,24.72
2018-07-23T05:24:49.313Z,22.20
2018-07-23T05:28:13.809Z,20.32
2018-07-23T05:31:38.315Z,23.50
2018-07-23T05:35:02.835Z,20.75
2018-07-23T05:38:27.125Z,22.07
2018-07-23T05:41:51.607Z,22.20
2018-07-23T05:45:16.180Z,19.52
2018-07-23T05:48:40.639Z,17.32
2018-07-23T05:52:05.114Z,14.83
2018-07-23T05:55:29.558Z,16.77
2018-07-23T05:58:54.080Z,19.62
2018-07-23T06:02:18.543Z,17.65
2018-07-23T06:05:43.032Z,15.75
2018-07-23T06:09:09.832Z,15.83
2018-07-23T06:13:08.426Z,16.48
2018-07-23T06:16:33.124Z,24.43
2018-07-23T06:19:57.606Z,24.57
2018-07-23T06:23:22.077Z,23.60
2018-07-23T06:26:46.556Z,26.40
2018-07-23T06:30:12.248Z,22.62
2018-07-23T06:33:36.787Z,19.35
2018-07-23T06:37:01.273Z,22.70
2018-07-23T06:40:25.755Z,17.37
2018-07-23T06:43:50.221Z,12.20
2018-07-23T06:47:14.677Z,15.65
2018-07-23T06:50:39.256Z,14.30
2018-07-23T06:54:03.776Z,14.40
2018-07-23T06:57:28.291Z,13.93
2018-07-23T07:00:52.770Z,15.15
2018-07-23T07:04:20.245Z,11.22
2018-07-23T07:07:44.699Z,10.88
2018-07-23T07:11:09.187Z,10.10
2018-07-23T07:14:33.668Z,8.18
2018-07-23T07:17:58.186Z,7.70
2018-07-23T07:21:22.703Z,7.67
2018-07-23T07:24:47.199Z,8.28
2018-07-23T07:28:11.723Z,7.75
2018-07-23T07:31:36.250Z,8.78
2018-07-23T07:35:00.693Z,7.40
2018-07-23T07:38:25.262Z,7.83
2018-07-23T07:41:49.683Z,7.08
2018-07-23T07:45:14.178Z,8.38
2018-07-23T07:48:38.667Z,6.42
2018-07-23T07:52:03.217Z,5.87
2018-07-23T07:55:27.664Z,6.35
2018-07-23T07:58:52.169Z,5.37
2018-07-23T08:02:16.686Z,6.35
2018-07-23T08:05:41.147Z,6.70
2018-07-23T08:09:08.638Z,5.78
2018-07-23T08:12:33.171Z,6.53
2018-07-23T08:15:57.590Z,6.62
2018-07-23T08:19:22.085Z,6.05
2018-07-23T08:22:46.549Z,8.33
2018-07-23T08:26:10.992Z,9.23
2018-07-23T08:29:35.499Z,8.48
2018-07-23T08:33:00.012Z,8.40
2018-07-23T08:36:24.494Z,8.25
2018-07-23T08:39:48.975Z,12.58
2018-07-23T08:43:13.424Z,12.78
2018-07-23T08:46:37.885Z,9.23
2018-07-23T08:50:02.339Z,10.88
2018-07-23T08:53:30.337Z,9.75
2018-07-23T08:56:54.790Z,10.53
2018-07-23T09:00:19.282Z,7.58
2018-07-23T09:03:43.722Z,11.03
2018-07-23T09:07:08.142Z,9.50
2018-07-23T09:10:32.627Z,10.00
2018-07-23T09:13:57.121Z,13.38
2018-07-23T09:17:21.577Z,12.05
2018-07-23T09:20:46.012Z,8.75
2018-07-23T09:24:10.472Z,13.13
2018-07-23T09:27:35.111Z,12.00
2018-07-23T09:30:59.657Z,12.40
2018-07-23T09:34:24.023Z,11.70
2018-07-23T09:37:48.492Z,9.33
2018-07-23T09:41:12.929Z,12.23
2018-07-23T09:44:37.400Z,15.20
2018-07-23T09:48:01.872Z,12.65
2018-07-23T09:51:26.419Z,15.28
2018-07-23T09:54:50.870Z,15.08
2018-07-23T09:58:15.326Z,13.25
2018-07-23T10:01:39.839Z,12.53
2018-07-23T10:05:04.467Z,14.50
2018-07-23T10:08:28.942Z,15.80
2018-07-23T10:11:53.464Z,18.50
2018-07-23T10:15:17.958Z,18.60
2018-07-23T10:18:42.446Z,16.12
2018-07-23T10:22:07.001Z,17.80
2018-07-23T10:25:31.447Z,17.05
2018-07-23T10:28:55.919Z,16.90
2018-07-23T10:32:20.373Z,19.05
2018-07-23T10:35:44.959Z,16.05
2018-07-23T10:39:10.386Z,10.38
2018-07-23T10:42:34.908Z,10.10
2018-07-23T10:45:59.394Z,11.95
2018-07-23T10:49:23.849Z,12.98
2018-07-23T10:52:48.365Z,11.55
2018-07-23T10:56:12.843Z,14.90
2018-07-23T10:59:37.346Z,12.85
2018-07-23T11:03:01.811Z,10.20
2018-07-23T11:06:26.355Z,9.18
2018-07-23T11:09:50.839Z,8.35
2018-07-23T11:13:15.300Z,12.20
2018-07-23T11:16:39.784Z,9.20
2018-07-23T11:20:04.376Z,8.30
2018-07-23T11:23:28.867Z,8.80
2018-07-23T11:26:53.534Z,9.08
2018-07-23T11:30:18.032Z,10.13
2018-07-23T11:33:42.527Z,8.78
2018-07-23T11:37:06.999Z,7.05
2018-07-23T11:40:31.508Z,11.10
2018-07-23T11:43:55.939Z,6.62
2018-07-23T11:47:20.395Z,8.48
2018-07-23T11:50:44.909Z,8.08
2018-07-23T11:54:12.496Z,5.70
2018-07-23T11:57:36.949Z,8.48
2018-07-23T12:01:01.737Z,6.53
2018-07-23T12:04:26.269Z,8.03
2018-07-23T12:07:50.649Z,7.33
2018-07-23T12:11:15.116Z,8.13
2018-07-23T12:14:39.521Z,7.70
2018-07-23T12:18:03.991Z,7.53
2018-07-23T12:21:28.452Z,9.10
2018-07-23T12:24:52.909Z,7.53
2018-07-23T12:28:17.529Z,7.20
2018-07-23T12:31:41.978Z,6.78
2018-07-23T12:35:06.583Z,6.87
2018-07-23T12:38:31.050Z,7.90
2018-07-23T12:41:55.563Z,7.85
2018-07-23T12:45:20.053Z,6.92
2018-07-23T12:48:44.547Z,8.18
2018-07-23T12:52:09.180Z,6.12
2018-07-23T12:55:33.725Z,6.20
2018-07-23T12:58:58.263Z,8.88
2018-07-23T13:02:22.704Z,7.47
2018-07-23T13:05:47.192Z,9.13
2018-07-23T13:09:13.034Z,7.90
2018-07-23T13:12:37.511Z,7.97
2018-07-23T13:16:01.994Z,8.35
2018-07-23T13:19:26.474Z,7.08
2018-07-23T13:22:50.946Z,7.22
2018-07-23T13:26:15.478Z,6.83
2018-07-23T13:29:39.974Z,6.90
2018-07-23T13:33:04.439Z,7.50
2018-07-23T13:36:28.917Z,8.60
2018-07-23T13:39:53.432Z,6.70
2018-07-23T13:43:17.953Z,8.70
2018-07-23T13:46:42.501Z,7.70
2018-07-23T13:50:07.096Z,7.33
2018-07-23T13:53:31.608Z,7.75
2018-07-23T13:56:55.803Z,8.20
2018-07-23T14:00:20.342Z,6.95
2018-07-23T14:03:44.892Z,7.22
2018-07-23T14:07:09.393Z,6.67
2018-07-23T14:10:33.906Z,10.75
2018-07-23T14:13:58.377Z,7.72
2018-07-23T14:17:22.908Z,8.38
2018-07-23T14:20:47.445Z,6.95
2018-07-23T14:24:11.936Z,7.40
2018-07-23T14:27:36.418Z,7.72
2018-07-23T14:31:00.903Z,6.72
2018-07-23T14:34:25.399Z,14.55
2018-07-23T14:37:49.901Z,7.53
2018-07-23T14:41:14.421Z,7.72
2018-07-23T14:44:38.909Z,7.35
2018-07-23T14:48:03.413Z,5.15
2018-07-23T14:51:28.028Z,6.80
2018-07-23T14:54:52.489Z,6.58
2018-07-23T14:58:17.042Z,6.45
2018-07-23T15:01:41.540Z,8.40
2018-07-23T15:05:06.535Z,6.62
2018-07-23T15:08:31.039Z,7.25
2018-07-23T15:11:55.537Z,6.78
2018-07-23T15:15:20.021Z,6.92
2018-07-23T15:18:44.501Z,6.85
2018-07-23T15:22:09.069Z,7.53
2018-07-23T15:25:33.564Z,6.87
2018-07-23T15:28:58.065Z,6.95
2018-07-23T15:32:22.511Z,6.25
2018-07-23T15:35:46.989Z,6.33
2018-07-23T15:39:11.877Z,6.08
2018-07-23T15:42:36.386Z,5.75
2018-07-23T15:46:00.941Z,7.87
2018-07-23T15:49:25.347Z,8.20
2018-07-23T15:52:49.865Z,6.17
2018-07-23T15:56:14.560Z,6.85
2018-07-23T15:59:39.021Z,6.03
2018-07-23T16:03:03.486Z,5.90
2018-07-23T16:06:28.013Z,7.08
2018-07-23T16:09:52.520Z,6.28
2018-07-23T16:13:17.011Z,6.30
2018-07-23T16:16:41.477Z,6.80
2018-07-23T16:20:06.603Z,16.93
2018-07-23T16:23:31.032Z,8.53
2018-07-23T16:26:55.440Z,5.95
2018-07-23T16:30:19.843Z,11.65
2018-07-23T16:33:44.367Z,5.97
2018-07-23T16:37:08.849Z,11.35
2018-07-23T16:40:33.387Z,7.62
2018-07-23T16:43:57.896Z,7.05
2018-07-23T16:47:22.355Z,7.15
2018-07-23T16:50:46.783Z,9.30
2018-07-23T16:54:11.284Z,6.53
2018-07-23T16:57:35.775Z,12.60
2018-07-23T17:01:00.245Z,7.53
2018-07-23T17:04:24.672Z,8.43
2018-07-23T17:07:49.125Z,6.72
2018-07-23T17:11:13.538Z,6.58
2018-07-23T17:14:38.002Z,7.80
2018-07-23T17:18:02.518Z,6.25
2018-07-23T17:21:26.900Z,5.37
2018-07-23T17:24:51.334Z,6.17
2018-07-23T17:28:15.756Z,5.17
2018-07-23T17:31:40.254Z,5.33
2018-07-23T17:35:04.745Z,5.62
2018-07-23T17:38:29.170Z,5.80
2018-07-23T17:41:53.611Z,7.83
2018-07-23T17:45:18.056Z,6.03
2018-07-23T17:48:42.490Z,6.30
2018-07-23T17:52:06.976Z,7.62
2018-07-23T17:55:31.397Z,5.90
2018-07-23T17:58:55.978Z,7.50
2018-07-23T18:02:20.578Z,5.40
2018-07-23T18:05:45.040Z,5.10
2018-07-23T18:09:11.734Z,6.70
2018-07-23T18:12:36.156Z,7.90
2018-07-23T18:16:00.602Z,6.05
2018-07-23T18:19:31.588Z,8.28
2018-07-23T18:22:55.979Z,7.67
2018-07-23T18:26:20.427Z,4.65
2018-07-23T18:29:44.921Z,4.80
2018-07-23T18:33:09.342Z,5.03
2018-07-23T18:36:33.542Z,5.92
2018-07-23T18:39:57.973Z,7.70
2018-07-23T18:43:22.406Z,7.03
2018-07-23T18:46:46.894Z,6.15
2018-07-23T18:50:11.319Z,7.33
2018-07-23T18:53:35.758Z,7.70
2018-07-23T18:57:01.634Z,6.85
2018-07-23T19:00:26.076Z,5.53
2018-07-23T19:03:50.519Z,4.72
2018-07-23T19:07:14.972Z,4.85
2018-07-23T19:10:39.434Z,5.67
2018-07-23T19:14:03.962Z,5.47
2018-07-23T19:17:35.063Z,6.30
2018-07-23T19:20:59.519Z,4.35
2018-07-23T19:24:23.995Z,4.55
2018-07-23T19:27:48.444Z,5.42
2018-07-23T19:31:12.886Z,5.67
2018-07-23T19:34:37.359Z,4.58
2018-07-23T19:38:01.765Z,4.85
2018-07-23T19:41:26.967Z,4.90
2018-07-23T19:44:51.472Z,5.20
2018-07-23T19:48:15.956Z,4.80
2018-07-23T19:51:40.450Z,7.28
2018-07-23T19:55:05.054Z,6.80
2018-07-23T19:58:29.620Z,5.62
2018-07-23T20:01:54.078Z,5.25
2018-07-23T20:05:18.539Z,5.58
2018-07-23T20:08:43.796Z,9.13
2018-07-23T20:12:08.321Z,5.55
2018-07-23T20:15:32.749Z,6.40
2018-07-23T20:18:57.271Z,6.15
2018-07-23T20:22:21.710Z,4.87
2018-07-23T20:25:46.224Z,6.80
2018-07-23T20:29:10.672Z,5.47
2018-07-23T20:32:35.132Z,5.25
2018-07-23T20:35:59.571Z,6.40
2018-07-23T20:39:24.099Z,6.10
2018-07-23T20:42:48.548Z,8.55
2018-07-23T20:46:13.008Z,13.43
2018-07-23T20:49:37.469Z,10.45
2018-07-23T20:53:01.911Z,10.48
2018-07-23T20:56:26.408Z,7.22
2018-07-23T20:59:50.858Z,13.25
2018-07-23T21:03:15.290Z,8.63
2018-07-23T21:06:39.758Z,9.18
2018-07-23T21:10:04.329Z,7.53
2018-07-23T21:13:28.761Z,7.42
2018-07-23T21:16:53.242Z,11.28
2018-07-23T21:20:17.761Z,8.35
2018-07-23T21:23:42.272Z,8.90
2018-07-23T21:27:06.772Z,13.28
2018-07-23T21:30:31.241Z,8.83
2018-07-23T21:33:55.703Z,14.28
2018-07-23T21:37:20.160Z,8.83
2018-07-23T21:40:44.574Z,8.95
2018-07-23T21:44:09.057Z,8.23
2018-07-23T21:47:33.529Z,10.18
2018-07-23T21:50:57.999Z,8.40
2018-07-23T21:54:22.521Z,9.58
2018-07-23T21:57:46.949Z,8.43
2018-07-23T22:01:11.447Z,14.20
2018-07-23T22:04:35.970Z,9.28
2018-07-23T22:08:00.445Z,9.58
2018-07-23T22:11:24.900Z,11.50
2018-07-23T22:14:49.372Z,9.95
2018-07-23T22:18:13.810Z,9.18
2018-07-23T22:21:38.287Z,13.48
2018-07-23T22:25:02.741Z,11.43
2018-07-23T22:28:27.197Z,12.90
2018-07-23T22:31:51.698Z,106.03
2018-07-23T22:35:16.152Z,116.37
2018-07-23T22:38:40.630Z,110.40
2018-07-23T22:42:05.267Z,67.08
2018-07-23T22:45:29.712Z,35.80
2018-07-23T22:48:54.192Z,22.75
2018-07-23T22:52:18.651Z,18.17
2018-07-23T22:55:43.102Z,18.45
2018-07-23T22:59:07.554Z,27.95
2018-07-23T23:02:31.985Z,20.05
2018-07-23T23:05:56.465Z,16.97
2018-07-23T23:09:20.882Z,16.10
2018-07-23T23:12:45.366Z,16.90
2018-07-23T23:16:09.854Z,16.27
2018-07-23T23:19:34.283Z,16.32
2018-07-23T23:22:58.731Z,15.70
2018-07-23T23:26:23.196Z,16.95
2018-07-23T23:29:47.657Z,16.73
2018-07-23T23:33:12.122Z,15.78
2018-07-23T23:36:36.593Z,15.40
2018-07-23T23:40:01.056Z,17.27
2018-07-23T23:43:25.526Z,17.55
2018-07-23T23:46:50.011Z,15.28
2018-07-23T23:50:14.485Z,16.77
2018-07-23T23:53:38.665Z,16.37
2018-07-23T23:57:03.153Z,18.85
